createdAt,value
2019-01-16T00:00:11.142Z,100296.09
2019-01-16T00:02:48.173Z,100287.48
2019-01-16T00:05:22.204Z,100304.85
2019-01-16T00:08:02.236Z,100297.80
2019-01-16T00:10:30.050Z,100295.26
2019-01-16T00:13:12.942Z,100295.77
2019-01-16T00:15:40.752Z,100299.39
2019-01-16T00:18:08.839Z,100302.69
2019-01-16T00:20:51.969Z,100302.52
2019-01-16T00:23:28.848Z,100300.54
2019-01-16T00:26:12.948Z,100291.48
2019-01-16T00:28:40.728Z,100296.92
2019-01-16T00:31:08.596Z,100305.20
2019-01-16T00:33:42.134Z,100304.55
2019-01-16T00:36:09.957Z,100303.19
2019-01-16T00:38:56.159Z,100299.55
2019-01-16T00:41:36.258Z,100302.05
2019-01-16T00:44:06.901Z,100311.74
2019-01-16T00:46:37.690Z,100312.23
2019-01-16T00:49:05.464Z,100301.92
2019-01-16T00:51:45.542Z,100303.64
2019-01-16T00:54:16.075Z,100325.37
2019-01-16T00:56:47.104Z,100302.16
2019-01-16T00:59:31.668Z,100311.73
2019-01-16T01:02:17.605Z,100310.34
2019-01-16T01:04:54.209Z,100307.67
2019-01-16T01:07:24.603Z,100306.73
2019-01-16T01:09:52.370Z,100304.51
2019-01-16T01:12:20.155Z,100305.42
2019-01-16T01:14:47.965Z,100300.06
2019-01-16T01:17:21.589Z,100300.14
2019-01-16T01:20:05.804Z,100313.20
2019-01-16T01:22:45.557Z,100304.70
2019-01-16T01:25:19.625Z,100308.28
2019-01-16T01:27:50.144Z,100315.59
2019-01-16T01:30:29.979Z,100302.60
2019-01-16T01:33:09.910Z,100311.61
2019-01-16T01:35:37.763Z,100318.43
2019-01-16T01:38:14.648Z,100311.33
2019-01-16T01:40:48.273Z,100304.02
2019-01-16T01:43:27.954Z,100308.91
2019-01-16T01:46:12.052Z,100303.64
2019-01-16T01:48:42.624Z,100297.64
2019-01-16T01:51:25.726Z,100308.78
2019-01-16T01:53:53.574Z,100308.98
2019-01-16T01:56:30.186Z,100310.84
2019-01-16T01:59:14.682Z,100321.78
2019-01-16T02:01:48.539Z,100310.53
2019-01-16T02:04:22.574Z,100316.25
2019-01-16T02:06:50.345Z,100313.59
2019-01-16T02:09:30.123Z,100323.16
2019-01-16T02:12:14.174Z,100312.86
2019-01-16T02:14:48.025Z,100311.84
2019-01-16T02:17:15.805Z,100320.39
2019-01-16T02:19:52.495Z,100331.41
2019-01-16T02:22:28.965Z,100312.36
2019-01-16T02:25:05.829Z,100318.33
2019-01-16T02:27:50.287Z,100297.16
2019-01-16T02:30:18.150Z,100295.21
2019-01-16T02:32:45.951Z,100290.55
2019-01-16T02:35:22.840Z,100285.42
2019-01-16T02:37:59.558Z,100285.20
2019-01-16T02:40:30.095Z,100282.34
2019-01-16T02:43:06.703Z,100279.68
2019-01-16T02:45:37.255Z,100278.74
2019-01-16T02:48:08.014Z,100266.19
2019-01-16T02:50:53.842Z,100270.81
2019-01-16T02:53:27.467Z,100263.95
2019-01-16T02:56:01.046Z,100266.53
2019-01-16T02:58:28.874Z,100265.89
2019-01-16T03:00:56.659Z,100266.21
2019-01-16T03:03:30.458Z,100266.52
2019-01-16T03:06:00.993Z,100269.00
2019-01-16T03:08:28.773Z,100263.77
2019-01-16T03:10:56.578Z,100267.42
2019-01-16T03:13:36.334Z,100268.98
2019-01-16T03:16:12.776Z,100257.11
2019-01-16T03:18:43.312Z,100260.77
2019-01-16T03:21:16.759Z,100253.63
2019-01-16T03:23:50.897Z,100259.10
2019-01-16T03:26:30.758Z,100264.71
2019-01-16T03:29:07.534Z,100242.75
2019-01-16T03:31:35.388Z,100243.04
2019-01-16T03:34:03.165Z,100243.12
2019-01-16T03:36:30.994Z,100249.95
2019-01-16T03:39:11.111Z,100235.14
2019-01-16T03:41:41.672Z,100245.38
2019-01-16T03:44:09.491Z,100238.56
2019-01-16T03:46:37.268Z,100241.09
2019-01-16T03:49:12.917Z,100243.31
2019-01-16T03:51:34.805Z,100239.89
2019-01-16T03:54:14.606Z,100230.01
2019-01-16T03:56:51.533Z,100222.63
2019-01-16T03:59:25.119Z,100220.97
2019-01-16T04:02:01.657Z,100217.61
2019-01-16T04:04:29.473Z,100216.78
2019-01-16T04:07:00.457Z,100217.12
2019-01-16T04:09:37.460Z,100216.70
2019-01-16T04:12:05.301Z,100210.13
2019-01-16T04:14:45.093Z,100210.92
2019-01-16T04:17:29.617Z,100202.55
2019-01-16T04:20:03.365Z,100204.91
2019-01-16T04:22:31.154Z,100196.81
2019-01-16T04:25:15.768Z,100196.09
2019-01-16T04:27:58.619Z,100187.06
2019-01-16T04:30:26.997Z,100189.78
2019-01-16T04:33:11.762Z,100189.60
2019-01-16T04:35:54.677Z,100203.88
2019-01-16T04:38:25.204Z,100207.69
2019-01-16T04:40:58.759Z,100182.34
2019-01-16T04:43:32.790Z,100186.27
2019-01-16T04:46:03.254Z,100188.28
2019-01-16T04:48:36.805Z,100180.16
2019-01-16T04:51:04.640Z,100180.67
2019-01-16T04:53:32.473Z,100178.41
2019-01-16T04:56:00.262Z,100172.67
2019-01-16T04:58:43.088Z,100162.30
2019-01-16T05:01:13.986Z,100169.63
2019-01-16T05:03:47.968Z,100168.91
2019-01-16T05:06:32.185Z,100165.05
2019-01-16T05:08:59.968Z,100155.92
2019-01-16T05:11:30.766Z,100154.73
2019-01-16T05:13:58.615Z,100159.87
2019-01-16T05:16:35.751Z,100153.91
2019-01-16T05:19:15.513Z,100152.61
2019-01-16T05:21:43.308Z,100147.31
2019-01-16T05:24:20.650Z,100148.55
2019-01-16T05:26:54.420Z,100142.69
2019-01-16T05:29:25.250Z,100139.20
2019-01-16T05:31:59.039Z,100135.67
2019-01-16T05:34:43.821Z,100130.08
2019-01-16T05:37:14.357Z,100125.92
2019-01-16T05:39:57.516Z,100130.34
2019-01-16T05:42:37.286Z,100128.32
2019-01-16T05:45:24.201Z,100126.81
2019-01-16T05:47:51.999Z,100120.59
2019-01-16T05:50:36.876Z,100124.00
2019-01-16T05:53:04.745Z,100123.96
2019-01-16T05:55:44.895Z,100131.69
2019-01-16T05:58:12.672Z,100121.26
2019-01-16T06:00:57.316Z,100106.67
2019-01-16T06:03:25.096Z,100121.13
2019-01-16T06:05:55.850Z,100112.03
2019-01-16T06:08:26.739Z,100118.95
2019-01-16T06:10:57.745Z,100124.14
2019-01-16T06:13:25.558Z,100115.02
2019-01-16T06:16:10.346Z,100113.01
2019-01-16T06:18:38.132Z,100103.52
2019-01-16T06:21:08.782Z,100107.28
2019-01-16T06:23:36.632Z,100100.07
2019-01-16T06:26:07.213Z,100101.73
2019-01-16T06:28:38.001Z,100088.33
2019-01-16T06:31:11.682Z,100102.50
2019-01-16T06:33:39.527Z,100095.19
2019-01-16T06:36:10.354Z,100093.72
2019-01-16T06:38:54.893Z,100100.11
2019-01-16T06:41:28.714Z,100102.84
2019-01-16T06:43:59.490Z,100097.05
2019-01-16T06:46:39.583Z,100090.20
2019-01-16T06:49:25.776Z,100091.72
2019-01-16T06:52:02.685Z,100099.90
2019-01-16T06:54:30.500Z,100090.25
2019-01-16T06:57:01.011Z,100092.50
2019-01-16T06:59:31.870Z,100095.17
2019-01-16T07:02:05.759Z,100110.55
2019-01-16T07:04:39.611Z,100094.69
2019-01-16T07:07:07.385Z,100094.34
2019-01-16T07:09:47.251Z,100097.97
2019-01-16T07:12:15.019Z,100091.30
2019-01-16T07:14:59.401Z,100095.84
2019-01-16T07:17:33.043Z,100100.39
2019-01-16T07:20:09.596Z,100113.34
2019-01-16T07:22:33.368Z,100106.58
2019-01-16T07:25:18.125Z,100102.16
2019-01-16T07:27:54.902Z,100108.28
2019-01-16T07:30:28.893Z,100101.99
2019-01-16T07:33:13.886Z,100101.85
2019-01-16T07:35:41.718Z,100121.48
2019-01-16T07:38:21.871Z,100111.47
2019-01-16T07:40:55.438Z,100108.53
2019-01-16T07:43:35.185Z,100108.06
2019-01-16T07:46:09.088Z,100103.29
2019-01-16T07:48:53.445Z,100109.00
2019-01-16T07:51:39.405Z,100111.61
2019-01-16T07:54:19.154Z,100112.26
2019-01-16T07:56:46.955Z,100108.55
2019-01-16T07:59:31.736Z,100112.61
2019-01-16T08:02:02.321Z,100105.91
2019-01-16T08:04:34.031Z,100123.47
2019-01-16T08:07:04.631Z,100106.75
2019-01-16T08:09:44.743Z,100107.05
2019-01-16T08:12:24.849Z,100103.02
2019-01-16T08:14:58.922Z,100109.05
2019-01-16T08:17:26.757Z,100111.94
2019-01-16T08:20:11.085Z,100120.38
2019-01-16T08:22:38.913Z,100110.23
2019-01-16T08:25:23.267Z,100106.03
2019-01-16T08:27:51.094Z,100104.50
2019-01-16T08:30:33.985Z,100098.61
2019-01-16T08:33:17.067Z,100097.63
2019-01-16T08:35:44.834Z,100102.21
2019-01-16T08:38:12.821Z,100099.39
2019-01-16T08:40:46.290Z,100088.64
2019-01-16T08:43:17.001Z,100090.03
2019-01-16T08:46:02.893Z,100102.98
2019-01-16T08:48:42.773Z,100104.73
2019-01-16T08:51:16.155Z,100098.98
2019-01-16T08:53:44.002Z,100099.59
2019-01-16T08:56:14.574Z,100102.78
2019-01-16T08:58:51.190Z,100098.97
2019-01-16T09:01:35.490Z,100102.88
2019-01-16T09:04:19.973Z,100097.95
2019-01-16T09:06:50.532Z,100091.42
2019-01-16T09:09:18.370Z,100093.66
2019-01-16T09:11:55.208Z,100092.31
2019-01-16T09:14:23.042Z,100089.20
2019-01-16T09:16:50.837Z,100092.73
2019-01-16T09:19:18.656Z,100087.89
2019-01-16T09:22:01.622Z,100089.97
2019-01-16T09:24:41.087Z,100085.69
2019-01-16T09:27:25.537Z,100094.16
2019-01-16T09:30:10.121Z,100075.89
2019-01-16T09:32:50.056Z,100092.30
2019-01-16T09:35:23.804Z,100078.72
2019-01-16T09:37:51.616Z,100096.18
2019-01-16T09:40:37.859Z,100084.95
2019-01-16T09:43:14.739Z,100093.92
2019-01-16T09:45:57.913Z,100079.30
2019-01-16T09:48:25.723Z,100071.27
2019-01-16T09:50:54.115Z,100066.91
2019-01-16T09:53:27.995Z,100065.39
2019-01-16T09:56:10.553Z,100072.73
2019-01-16T09:58:47.175Z,100065.60
2019-01-16T10:01:14.989Z,100063.11
2019-01-16T10:03:55.181Z,100060.36
2019-01-16T10:06:25.938Z,100057.81
2019-01-16T10:08:53.793Z,100056.31
2019-01-16T10:11:21.619Z,100054.42
2019-01-16T10:13:49.410Z,100048.83
2019-01-16T10:16:17.223Z,100038.69
2019-01-16T10:18:48.055Z,100039.17
2019-01-16T10:21:31.126Z,100043.78
2019-01-16T10:23:58.924Z,100044.66
2019-01-16T10:26:43.429Z,100043.64
2019-01-16T10:29:26.279Z,100050.14
2019-01-16T10:31:54.106Z,100035.75
2019-01-16T10:34:38.750Z,100033.27
2019-01-16T10:37:23.294Z,100026.31
2019-01-16T10:39:53.797Z,100027.80
2019-01-16T10:42:24.100Z,100018.63
2019-01-16T10:44:51.933Z,100012.66
2019-01-16T10:47:19.711Z,100012.24
2019-01-16T10:50:05.980Z,100003.95
2019-01-16T10:52:39.539Z,100003.44
2019-01-16T10:55:07.357Z,99999.04
2019-01-16T10:57:41.440Z,99995.64
2019-01-16T11:00:18.269Z,99995.87
2019-01-16T11:02:58.277Z,99993.41
2019-01-16T11:05:42.876Z,99988.35
2019-01-16T11:08:10.652Z,99983.78
2019-01-16T11:10:41.668Z,99978.11
2019-01-16T11:13:15.269Z,99976.58
2019-01-16T11:15:43.046Z,99980.55
2019-01-16T11:18:14.080Z,99978.10
2019-01-16T11:20:57.262Z,99962.14
2019-01-16T11:23:31.076Z,99953.45
2019-01-16T11:26:01.430Z,99957.38
2019-01-16T11:28:44.087Z,99943.11
2019-01-16T11:31:17.919Z,99945.80
2019-01-16T11:34:02.517Z,99944.48
2019-01-16T11:36:33.059Z,99937.98
2019-01-16T11:39:19.367Z,99932.05
2019-01-16T11:41:49.939Z,99925.60
2019-01-16T11:44:17.728Z,99919.12
2019-01-16T11:46:48.304Z,99915.29
2019-01-16T11:49:16.152Z,99917.08
2019-01-16T11:51:53.161Z,99920.08
2019-01-16T11:54:29.932Z,99921.24
2019-01-16T11:57:04.048Z,99919.14
2019-01-16T11:59:41.162Z,99913.06
2019-01-16T12:02:08.972Z,99904.23
2019-01-16T12:04:51.896Z,99894.33
2019-01-16T12:07:34.780Z,99889.35
2019-01-16T12:10:05.448Z,99879.13
2019-01-16T12:12:36.060Z,99882.58
2019-01-16T12:15:20.277Z,99884.27
2019-01-16T12:18:03.226Z,99889.29
2019-01-16T12:20:34.046Z,99887.08
2019-01-16T12:23:01.817Z,99880.72
2019-01-16T12:25:33.490Z,99869.93
2019-01-16T12:28:04.235Z,99884.55
2019-01-16T12:30:34.820Z,99889.95
2019-01-16T12:33:02.638Z,99895.81
2019-01-16T12:35:39.487Z,99886.51
2019-01-16T12:38:13.452Z,99878.16
2019-01-16T12:40:57.825Z,99881.05
2019-01-16T12:43:28.411Z,99873.66
2019-01-16T12:46:14.379Z,99875.74
2019-01-16T12:48:44.831Z,99860.41
2019-01-16T12:51:18.534Z,99863.84
2019-01-16T12:53:58.673Z,99846.89
2019-01-16T12:56:32.269Z,99851.75
2019-01-16T12:59:06.023Z,99845.56
2019-01-16T13:01:50.454Z,99840.30
2019-01-16T13:04:36.373Z,99841.14
2019-01-16T13:07:04.166Z,99840.64
2019-01-16T13:09:34.697Z,99834.41
2019-01-16T13:12:14.520Z,99831.91
2019-01-16T13:14:42.634Z,99835.45
2019-01-16T13:17:19.714Z,99845.02
2019-01-16T13:19:47.574Z,99837.15
2019-01-16T13:22:18.140Z,99830.59
2019-01-16T13:24:55.250Z,99825.07
2019-01-16T13:27:39.769Z,99830.53
2019-01-16T13:30:10.956Z,99819.17
2019-01-16T13:32:44.519Z,99812.88
2019-01-16T13:35:21.302Z,99817.59
2019-01-16T13:38:06.036Z,99825.77
2019-01-16T13:40:42.918Z,99812.45
2019-01-16T13:43:19.727Z,99813.16
2019-01-16T13:45:53.744Z,99811.41
2019-01-16T13:48:21.563Z,99801.25
2019-01-16T13:51:05.814Z,99790.30
2019-01-16T13:53:48.734Z,99795.70
2019-01-16T13:56:31.369Z,99793.97
2019-01-16T13:59:15.832Z,99798.55
2019-01-16T14:01:52.616Z,99804.45
2019-01-16T14:04:29.627Z,99790.81
2019-01-16T14:06:57.402Z,99789.92
2019-01-16T14:09:28.166Z,99788.96
2019-01-16T14:11:55.993Z,99785.98
2019-01-16T14:14:40.632Z,99769.89
2019-01-16T14:17:25.084Z,99766.58
2019-01-16T14:20:11.041Z,99778.23
2019-01-16T14:22:54.121Z,99774.09
2019-01-16T14:25:24.819Z,99773.13
2019-01-16T14:28:18.399Z,99772.45
2019-01-16T14:31:01.250Z,99763.95
2019-01-16T14:33:29.063Z,99770.25
2019-01-16T14:36:08.857Z,99759.75
2019-01-16T14:38:36.671Z,99764.97
2019-01-16T14:41:10.426Z,99759.09
2019-01-16T14:43:44.465Z,99752.53
2019-01-16T14:46:12.278Z,99745.56
2019-01-16T14:48:40.110Z,99741.75
2019-01-16T14:51:10.413Z,99731.27
2019-01-16T14:53:47.016Z,99745.78
2019-01-16T14:56:31.332Z,99737.59
2019-01-16T14:59:11.246Z,99746.88
2019-01-16T15:01:55.764Z,99741.48
2019-01-16T15:04:23.636Z,99735.58
2019-01-16T15:06:54.012Z,99744.14
2019-01-16T15:09:21.792Z,99741.09
2019-01-16T15:11:55.704Z,99739.12
2019-01-16T15:14:41.833Z,99732.45
2019-01-16T15:17:21.793Z,99730.44
2019-01-16T15:19:55.494Z,99744.19
2019-01-16T15:22:35.642Z,99738.48
2019-01-16T15:25:09.629Z,99733.13
2019-01-16T15:27:37.448Z,99747.28
2019-01-16T15:30:23.989Z,99735.25
2019-01-16T15:33:00.896Z,99738.26
2019-01-16T15:35:43.812Z,99726.83
2019-01-16T15:38:26.985Z,99722.28
2019-01-16T15:40:57.560Z,99719.92
2019-01-16T15:43:28.175Z,99712.17
2019-01-16T15:46:04.871Z,99710.87
2019-01-16T15:48:49.458Z,99697.77
2019-01-16T15:51:32.355Z,99719.47
2019-01-16T15:54:00.168Z,99709.63
2019-01-16T15:56:33.712Z,99707.28
2019-01-16T15:59:04.556Z,99712.34
2019-01-16T16:01:32.335Z,99718.78
2019-01-16T16:04:05.893Z,99712.80
2019-01-16T16:06:33.749Z,99708.71
2019-01-16T16:09:04.244Z,99719.84
2019-01-16T16:11:44.083Z,99706.25
2019-01-16T16:14:18.013Z,99687.30
2019-01-16T16:16:51.577Z,99678.67
2019-01-16T16:19:28.139Z,99692.95
2019-01-16T16:22:08.046Z,99678.09
2019-01-16T16:24:35.914Z,99697.55
2019-01-16T16:27:12.943Z,99685.95
2019-01-16T16:29:57.444Z,99687.06
2019-01-16T16:32:25.249Z,99687.40
2019-01-16T16:34:53.076Z,99678.16
2019-01-16T16:37:36.067Z,99680.05
2019-01-16T16:40:10.062Z,99685.10
2019-01-16T16:42:37.875Z,99677.52
2019-01-16T16:45:24.266Z,99673.09
2019-01-16T16:47:55.068Z,99677.42
2019-01-16T16:50:38.126Z,99668.60
2019-01-16T16:53:22.594Z,99670.62
2019-01-16T16:55:53.118Z,99663.56
2019-01-16T16:58:39.308Z,99668.12
2019-01-16T17:01:07.144Z,99660.03
2019-01-16T17:03:40.844Z,99676.02
2019-01-16T17:06:17.815Z,99669.72
2019-01-16T17:08:45.650Z,99675.09
2019-01-16T17:11:30.349Z,99669.58
2019-01-16T17:14:14.797Z,99663.25
2019-01-16T17:16:54.704Z,99655.81
2019-01-16T17:19:37.815Z,99658.52
2019-01-16T17:22:18.032Z,99647.58
2019-01-16T17:24:57.900Z,99640.60
2019-01-16T17:27:31.979Z,99642.55
2019-01-16T17:29:59.776Z,99647.98
2019-01-16T17:32:45.974Z,99649.76
2019-01-16T17:35:16.541Z,99655.33
2019-01-16T17:38:01.035Z,99658.05
2019-01-16T17:40:37.818Z,99652.19
2019-01-16T17:43:05.634Z,99638.38
2019-01-16T17:45:42.404Z,99618.13
2019-01-16T17:48:15.983Z,99628.03
2019-01-16T17:50:43.808Z,99637.13
2019-01-16T17:53:29.529Z,99623.09
2019-01-16T17:56:12.788Z,99625.55
2019-01-16T17:58:52.709Z,99604.00
2019-01-16T18:01:23.108Z,99603.00
2019-01-16T18:04:03.053Z,99589.09
2019-01-16T18:06:40.120Z,99578.22
2019-01-16T18:09:13.716Z,99575.78
2019-01-16T18:11:44.387Z,99584.43
2019-01-16T18:14:12.351Z,99577.44
2019-01-16T18:16:46.174Z,99576.98
2019-01-16T18:19:14.029Z,99578.05
2019-01-16T18:21:56.924Z,99567.08
2019-01-16T18:24:27.512Z,99570.62
2019-01-16T18:27:07.288Z,99570.34
2019-01-16T18:29:44.169Z,99574.37
2019-01-16T18:32:21.167Z,99560.33
2019-01-16T18:34:51.775Z,99559.75
2019-01-16T18:37:19.607Z,99552.66
2019-01-16T18:39:53.425Z,99544.84
2019-01-16T18:42:33.070Z,99540.36
2019-01-16T18:45:02.788Z,99547.78
2019-01-16T18:47:30.687Z,99533.61
2019-01-16T18:50:16.688Z,99519.69
2019-01-16T18:52:44.553Z,99525.77
2019-01-16T18:55:12.464Z,99534.50
2019-01-16T18:57:52.124Z,99530.57
2019-01-16T19:00:36.566Z,99527.10
2019-01-16T19:03:22.532Z,99525.94
2019-01-16T19:05:50.405Z,99521.30
2019-01-16T19:08:36.425Z,99528.34
2019-01-16T19:11:07.185Z,99511.55
2019-01-16T19:13:35.024Z,99526.36
2019-01-16T19:16:05.949Z,99532.89
2019-01-16T19:18:50.205Z,99523.09
2019-01-16T19:21:23.788Z,99516.78
2019-01-16T19:23:51.653Z,99524.19
2019-01-16T19:26:31.600Z,99520.91
2019-01-16T19:29:08.640Z,99519.83
2019-01-16T19:31:36.424Z,99521.48
2019-01-16T19:34:16.211Z,99527.91
2019-01-16T19:36:46.972Z,99515.00
2019-01-16T19:39:17.808Z,99517.52
2019-01-16T19:42:02.416Z,99503.34
2019-01-16T19:44:32.970Z,99510.06
2019-01-16T19:47:03.659Z,99511.27
2019-01-16T19:49:37.503Z,99507.74
2019-01-16T19:52:05.293Z,99497.57
2019-01-16T19:54:33.118Z,99491.53
2019-01-16T19:57:19.229Z,99493.75
2019-01-16T20:00:02.481Z,99494.62
2019-01-16T20:02:45.367Z,99487.18
2019-01-16T20:05:25.159Z,99485.54
2019-01-16T20:07:52.981Z,99479.01
2019-01-16T20:10:39.266Z,99478.19
2019-01-16T20:13:09.827Z,99471.12
2019-01-16T20:15:46.611Z,99477.13
2019-01-16T20:18:26.735Z,99465.90
2019-01-16T20:21:12.785Z,99467.75
2019-01-16T20:23:43.273Z,99456.23
2019-01-16T20:26:16.818Z,99453.03
2019-01-16T20:28:47.277Z,99457.20
2019-01-16T20:31:30.462Z,99450.69
2019-01-16T20:33:58.416Z,99442.77
2019-01-16T20:36:43.087Z,99441.91
2019-01-16T20:39:13.766Z,99425.39
2019-01-16T20:41:50.605Z,99420.76
2019-01-16T20:44:18.604Z,99417.94
2019-01-16T20:46:52.226Z,99418.72
2019-01-16T20:49:23.026Z,99409.59
2019-01-16T20:51:50.980Z,99404.66
2019-01-16T20:54:31.030Z,99388.28
2019-01-16T20:56:58.904Z,99385.56
2019-01-16T20:59:38.593Z,99374.47
2019-01-16T21:02:15.331Z,99380.77
2019-01-16T21:05:00.024Z,99382.83
2019-01-16T21:07:34.913Z,99375.51
2019-01-16T21:10:05.464Z,99370.02
2019-01-16T21:12:48.376Z,99370.50
2019-01-16T21:15:19.149Z,99363.63
2019-01-16T21:17:49.981Z,99343.42
2019-01-16T21:20:34.353Z,99344.27
2019-01-16T21:23:04.923Z,99344.38
2019-01-16T21:25:32.962Z,99337.92
2019-01-16T21:28:06.850Z,99329.98
2019-01-16T21:30:51.243Z,99331.97
2019-01-16T21:33:27.921Z,99320.80
2019-01-16T21:36:01.498Z,99323.94
2019-01-16T21:38:29.447Z,99317.73
2019-01-16T21:41:03.361Z,99316.36
2019-01-16T21:43:31.187Z,99322.05
2019-01-16T21:46:11.047Z,99316.83
2019-01-16T21:48:51.193Z,99318.81
2019-01-16T21:51:25.010Z,99318.44
2019-01-16T21:53:55.617Z,99315.55
2019-01-16T21:56:29.469Z,99308.41
2019-01-16T21:59:03.062Z,99299.99
2019-01-16T22:01:33.905Z,99303.41
2019-01-16T22:04:18.406Z,99291.84
2019-01-16T22:06:46.228Z,99293.01
2019-01-16T22:09:19.919Z,99293.43
2019-01-16T22:11:47.828Z,99291.66
2019-01-16T22:14:33.699Z,99285.41
2019-01-16T22:17:10.516Z,99277.13
2019-01-16T22:19:45.819Z,99274.83
2019-01-16T22:22:30.592Z,99277.61
2019-01-16T22:24:58.460Z,99274.40
2019-01-16T22:27:29.549Z,99267.43
2019-01-16T22:29:57.354Z,99264.71
2019-01-16T22:32:31.669Z,99253.39
2019-01-16T22:35:02.504Z,99241.19
2019-01-16T22:37:30.982Z,99251.84
2019-01-16T22:39:58.942Z,99252.01
2019-01-16T22:42:38.110Z,99251.73
2019-01-16T22:45:12.609Z,99250.13
2019-01-16T22:47:52.820Z,99246.22
2019-01-16T22:50:27.029Z,99242.38
2019-01-16T22:53:00.904Z,99248.48
2019-01-16T22:55:43.735Z,99245.87
2019-01-16T22:58:11.566Z,99244.67
2019-01-16T23:00:39.693Z,99248.22
2019-01-16T23:03:13.664Z,99242.33
2019-01-16T23:05:41.475Z,99236.98
2019-01-16T23:08:09.269Z,99231.50
2019-01-16T23:10:39.817Z,99233.41
2019-01-16T23:13:24.418Z,99237.54
2019-01-16T23:15:52.250Z,99217.95
2019-01-16T23:18:28.956Z,99206.30
2019-01-16T23:20:56.863Z,99201.70
2019-01-16T23:23:41.715Z,99182.34
2019-01-16T23:26:09.579Z,99194.84
2019-01-16T23:28:43.679Z,99186.81
2019-01-16T23:31:14.559Z,99183.82
2019-01-16T23:33:48.113Z,99194.94
2019-01-16T23:36:16.327Z,99205.23
2019-01-16T23:38:47.234Z,99200.16
2019-01-16T23:41:33.255Z,99203.30
2019-01-16T23:44:09.967Z,99190.42
2019-01-16T23:46:46.920Z,99191.75
2019-01-16T23:49:14.701Z,99199.63
2019-01-16T23:51:45.302Z,99188.88
2019-01-16T23:54:13.185Z,99195.97
2019-01-16T23:56:43.778Z,99189.88
2019-01-16T23:59:14.816Z,99185.13
